createdAt,value
2018-07-17T00:00:07.424Z,6.05
2018-07-17T00:02:35.204Z,5.95
2018-07-17T00:05:02.932Z,5.58
2018-07-17T00:07:30.630Z,6.70
2018-07-17T00:09:58.314Z,5.22
2018-07-17T00:12:25.969Z,6.25
2018-07-17T00:14:53.670Z,5.55
2018-07-17T00:17:21.311Z,6.33
2018-07-17T00:19:48.981Z,5.67
2018-07-17T00:22:16.660Z,5.97
2018-07-17T00:24:44.341Z,6.30
2018-07-17T00:27:12.000Z,6.33
2018-07-17T00:29:39.686Z,7.10
2018-07-17T00:32:07.376Z,6.20
2018-07-17T00:34:35.051Z,5.92
2018-07-17T00:37:02.751Z,6.05
2018-07-17T00:39:30.427Z,6.35
2018-07-17T00:41:58.148Z,8.23
2018-07-17T00:44:25.820Z,6.90
2018-07-17T00:46:53.486Z,8.08
2018-07-17T00:49:21.177Z,7.10
2018-07-17T00:51:48.850Z,7.78
2018-07-17T00:54:16.516Z,7.95
2018-07-17T00:56:44.192Z,7.08
2018-07-17T00:59:11.865Z,8.20
2018-07-17T01:01:45.031Z,7.67
2018-07-17T01:04:18.124Z,7.58
2018-07-17T01:06:51.258Z,7.72
2018-07-17T01:09:24.397Z,7.37
2018-07-17T01:11:57.523Z,6.90
2018-07-17T01:14:29.117Z,12.30
2018-07-17T01:16:56.800Z,7.70
2018-07-17T01:19:24.452Z,7.10
2018-07-17T01:21:52.148Z,7.83
2018-07-17T01:24:19.830Z,9.40
2018-07-17T01:26:47.454Z,7.10
2018-07-17T01:29:15.107Z,7.83
2018-07-17T01:31:42.764Z,7.35
2018-07-17T01:34:10.503Z,7.35
2018-07-17T01:36:38.168Z,7.20
2018-07-17T01:39:06.751Z,6.80
2018-07-17T01:41:34.411Z,7.28
2018-07-17T01:44:02.097Z,7.70
2018-07-17T01:46:29.775Z,7.70
2018-07-17T01:48:57.439Z,7.55
2018-07-17T01:51:25.087Z,7.58
2018-07-17T01:53:52.772Z,7.65
2018-07-17T01:56:20.438Z,8.75
2018-07-17T01:58:48.116Z,7.72
2018-07-17T02:01:15.801Z,9.43
2018-07-17T02:03:43.444Z,7.35
2018-07-17T02:06:11.161Z,7.35
2018-07-17T02:08:38.813Z,7.65
2018-07-17T02:11:06.479Z,7.67
2018-07-17T02:13:34.120Z,7.83
2018-07-17T02:16:01.817Z,7.17
2018-07-17T02:18:29.454Z,8.40
2018-07-17T02:20:57.136Z,7.47
2018-07-17T02:23:24.766Z,7.35
2018-07-17T02:25:52.431Z,7.42
2018-07-17T02:28:20.076Z,7.45
2018-07-17T02:30:47.728Z,7.65
2018-07-17T02:33:15.380Z,7.53
2018-07-17T02:35:43.036Z,7.92
2018-07-17T02:38:10.706Z,8.40
2018-07-17T02:40:38.341Z,7.70
2018-07-17T02:43:06.027Z,7.17
2018-07-17T02:45:33.667Z,7.35
2018-07-17T02:48:01.321Z,6.87
2018-07-17T02:50:28.942Z,7.70
2018-07-17T02:52:56.630Z,7.78
2018-07-17T02:55:24.268Z,7.80
2018-07-17T02:57:51.980Z,7.25
2018-07-17T03:00:19.653Z,8.43
2018-07-17T03:02:47.329Z,7.90
2018-07-17T03:05:14.977Z,8.23
2018-07-17T03:07:42.718Z,8.60
2018-07-17T03:10:10.491Z,8.15
2018-07-17T03:12:38.168Z,9.05
2018-07-17T03:15:05.840Z,9.25
2018-07-17T03:17:33.516Z,9.60
2018-07-17T03:20:01.180Z,10.55
2018-07-17T03:22:29.002Z,10.05
2018-07-17T03:24:56.641Z,8.60
2018-07-17T03:27:24.271Z,8.55
2018-07-17T03:29:51.928Z,8.35
2018-07-17T03:32:19.557Z,8.90
2018-07-17T03:34:47.229Z,8.78
2018-07-17T03:37:14.901Z,11.45
2018-07-17T03:39:42.572Z,9.85
2018-07-17T03:42:10.231Z,8.90
2018-07-17T03:44:37.890Z,9.40
2018-07-17T03:47:05.578Z,9.63
2018-07-17T03:49:33.268Z,10.95
2018-07-17T03:52:00.953Z,8.95
2018-07-17T03:54:28.611Z,9.03
2018-07-17T03:56:56.459Z,9.13
2018-07-17T03:59:24.163Z,9.55
2018-07-17T04:01:52.048Z,9.50
2018-07-17T04:04:19.765Z,8.95
2018-07-17T04:06:47.411Z,9.98
2018-07-17T04:09:15.042Z,9.45
2018-07-17T04:11:42.710Z,9.30
2018-07-17T04:14:10.379Z,9.00
2018-07-17T04:16:41.936Z,8.35
2018-07-17T04:19:09.571Z,7.90
2018-07-17T04:21:37.238Z,17.92
2018-07-17T04:24:04.954Z,8.20
2018-07-17T04:26:32.585Z,8.60
2018-07-17T04:29:00.237Z,8.35
2018-07-17T04:31:27.884Z,8.35
2018-07-17T04:33:55.514Z,8.13
2018-07-17T04:36:23.155Z,9.03
2018-07-17T04:38:50.823Z,9.28
2018-07-17T04:41:18.459Z,8.05
2018-07-17T04:43:46.100Z,8.28
2018-07-17T04:46:13.784Z,7.83
2018-07-17T04:48:41.703Z,8.13
2018-07-17T04:51:09.736Z,10.48
2018-07-17T04:53:44.225Z,9.13
2018-07-17T04:56:11.928Z,10.10
2018-07-17T04:58:39.561Z,9.55
2018-07-17T05:01:07.296Z,8.80
2018-07-17T05:03:34.902Z,9.10
2018-07-17T05:06:02.595Z,9.48
2018-07-17T05:08:30.248Z,8.65
2018-07-17T05:10:57.920Z,10.75
2018-07-17T05:13:25.624Z,10.60
2018-07-17T05:15:53.304Z,9.80
2018-07-17T05:18:20.962Z,9.83
2018-07-17T05:20:48.651Z,9.78
2018-07-17T05:23:16.320Z,9.60
2018-07-17T05:25:43.993Z,9.60
2018-07-17T05:28:11.674Z,9.80
2018-07-17T05:30:39.347Z,10.13
2018-07-17T05:33:07.287Z,8.05
2018-07-17T05:35:35.002Z,9.15
2018-07-17T05:38:02.683Z,11.28
2018-07-17T05:40:30.349Z,9.93
2018-07-17T05:42:58.028Z,10.63
2018-07-17T05:45:25.708Z,10.28
2018-07-17T05:47:53.387Z,8.38
2018-07-17T05:50:21.083Z,9.50
2018-07-17T05:52:48.766Z,13.32
2018-07-17T05:55:16.446Z,12.73
2018-07-17T05:57:44.156Z,8.65
2018-07-17T06:00:11.876Z,9.03
2018-07-17T06:02:39.592Z,10.20
2018-07-17T06:05:07.339Z,8.35
2018-07-17T06:07:35.346Z,9.20
2018-07-17T06:10:03.151Z,9.75
2018-07-17T06:12:30.866Z,9.10
2018-07-17T06:14:58.567Z,9.83
2018-07-17T06:17:26.233Z,14.53
2018-07-17T06:19:54.019Z,12.73
2018-07-17T06:22:21.668Z,10.18
2018-07-17T06:24:49.366Z,10.30
2018-07-17T06:27:17.064Z,11.53
2018-07-17T06:29:44.747Z,9.18
2018-07-17T06:32:12.571Z,9.08
2018-07-17T06:34:40.213Z,9.23
2018-07-17T06:37:07.926Z,12.18
2018-07-17T06:39:35.571Z,9.03
2018-07-17T06:42:03.323Z,9.45
2018-07-17T06:44:31.001Z,8.93
2018-07-17T06:46:58.651Z,14.53
2018-07-17T06:49:26.280Z,14.63
2018-07-17T06:51:53.951Z,12.25
2018-07-17T06:54:21.649Z,11.88
2018-07-17T06:56:49.343Z,10.05
2018-07-17T06:59:16.978Z,8.23
2018-07-17T07:01:44.721Z,8.28
2018-07-17T07:04:12.363Z,7.83
2018-07-17T07:06:40.085Z,7.60
2018-07-17T07:09:09.056Z,6.83
2018-07-17T07:11:36.751Z,8.23
2018-07-17T07:14:04.475Z,6.70
2018-07-17T07:16:32.127Z,8.47
2018-07-17T07:18:59.880Z,6.13
2018-07-17T07:21:27.561Z,6.33
2018-07-17T07:23:55.322Z,7.80
2018-07-17T07:26:22.944Z,13.83
2018-07-17T07:28:50.622Z,8.33
2018-07-17T07:31:18.266Z,6.47
2018-07-17T07:33:45.960Z,6.57
2018-07-17T07:36:13.619Z,6.53
2018-07-17T07:38:41.297Z,6.53
2018-07-17T07:41:08.983Z,7.37
2018-07-17T07:43:36.664Z,10.40
2018-07-17T07:46:04.527Z,7.53
2018-07-17T07:48:32.226Z,10.57
2018-07-17T07:50:59.889Z,7.07
2018-07-17T07:53:27.574Z,9.13
2018-07-17T07:55:55.299Z,6.63
2018-07-17T07:58:22.972Z,8.93
2018-07-17T08:00:50.707Z,6.60
2018-07-17T08:03:18.411Z,7.70
2018-07-17T08:05:46.234Z,6.90
2018-07-17T08:08:13.903Z,5.03
2018-07-17T08:10:41.590Z,5.60
2018-07-17T08:13:09.251Z,8.00
2018-07-17T08:15:36.956Z,5.20
2018-07-17T08:18:04.644Z,5.20
2018-07-17T08:20:32.316Z,9.27
2018-07-17T08:23:00.000Z,5.10
2018-07-17T08:25:27.724Z,5.47
2018-07-17T08:27:55.402Z,6.90
2018-07-17T08:30:23.470Z,4.80
2018-07-17T08:32:51.136Z,4.67
2018-07-17T08:35:18.779Z,4.93
2018-07-17T08:37:46.447Z,5.57
2018-07-17T08:40:14.149Z,5.50
2018-07-17T08:42:41.859Z,5.57
2018-07-17T08:45:09.555Z,5.13
2018-07-17T08:47:37.231Z,8.03
2018-07-17T08:50:04.912Z,5.50
2018-07-17T08:52:32.574Z,5.47
2018-07-17T08:55:00.453Z,4.90
2018-07-17T08:57:28.169Z,4.90
2018-07-17T08:59:55.837Z,4.83
2018-07-17T09:02:23.548Z,4.83
2018-07-17T09:04:51.231Z,5.00
2018-07-17T09:07:19.021Z,4.33
2018-07-17T09:09:46.685Z,6.43
2018-07-17T09:12:14.383Z,5.50
2018-07-17T09:14:42.039Z,5.07
2018-07-17T09:17:09.777Z,5.30
2018-07-17T09:19:37.591Z,5.53
2018-07-17T09:22:05.600Z,5.67
2018-07-17T09:24:33.297Z,4.70
2018-07-17T09:27:00.987Z,5.10
2018-07-17T09:29:28.640Z,7.80
2018-07-17T09:31:56.311Z,4.70
2018-07-17T09:34:23.979Z,5.27
2018-07-17T09:36:51.607Z,5.43
2018-07-17T09:39:19.284Z,4.67
2018-07-17T09:41:46.936Z,5.03
2018-07-17T09:44:14.628Z,4.30
2018-07-17T09:46:42.293Z,5.30
2018-07-17T09:49:10.004Z,4.50
2018-07-17T09:51:37.656Z,5.13
2018-07-17T09:54:05.304Z,5.93
2018-07-17T09:56:32.991Z,4.03
2018-07-17T09:59:00.672Z,3.60
2018-07-17T10:01:33.762Z,4.40
2018-07-17T10:04:01.488Z,3.73
2018-07-17T10:06:29.165Z,4.60
2018-07-17T10:08:56.866Z,4.53
2018-07-17T10:11:24.541Z,3.87
2018-07-17T10:13:52.212Z,4.57
2018-07-17T10:16:19.888Z,3.80
2018-07-17T10:18:47.560Z,3.50
2018-07-17T10:21:15.190Z,3.87
2018-07-17T10:23:42.884Z,3.93
2018-07-17T10:26:10.549Z,3.97
2018-07-17T10:28:38.282Z,3.70
2018-07-17T10:31:06.223Z,3.67
2018-07-17T10:33:33.883Z,3.73
2018-07-17T10:36:01.592Z,3.40
2018-07-17T10:38:29.290Z,3.90
2018-07-17T10:40:56.996Z,3.63
2018-07-17T10:43:24.674Z,4.00
2018-07-17T10:45:52.351Z,3.50
2018-07-17T10:48:20.007Z,3.73
2018-07-17T10:50:47.671Z,4.57
2018-07-17T10:53:15.391Z,4.07
2018-07-17T10:55:43.073Z,3.93
2018-07-17T10:58:10.778Z,4.20
2018-07-17T11:00:38.762Z,3.83
2018-07-17T11:03:06.524Z,3.60
2018-07-17T11:05:34.210Z,3.80
2018-07-17T11:08:01.908Z,3.90
2018-07-17T11:10:29.611Z,4.00
2018-07-17T11:12:57.471Z,4.60
2018-07-17T11:15:25.127Z,3.67
2018-07-17T11:17:52.814Z,3.63
2018-07-17T11:20:20.574Z,4.00
2018-07-17T11:22:48.229Z,7.43
2018-07-17T11:25:15.891Z,3.97
2018-07-17T11:27:43.570Z,3.77
2018-07-17T11:30:11.247Z,3.70
2018-07-17T11:32:38.951Z,3.87
2018-07-17T11:35:06.860Z,3.10
2018-07-17T11:37:34.792Z,3.10
2018-07-17T11:40:02.542Z,3.60
2018-07-17T11:42:30.223Z,3.40
2018-07-17T11:45:10.419Z,2.90
2018-07-17T11:47:38.341Z,3.20
2018-07-17T11:50:06.987Z,3.17
2018-07-17T11:52:41.827Z,3.00
2018-07-17T11:55:09.670Z,2.87
2018-07-17T11:57:39.788Z,2.60
2018-07-17T12:00:10.939Z,2.70
2018-07-17T12:02:39.768Z,2.40
2018-07-17T12:05:09.910Z,4.00
2018-07-17T12:07:49.235Z,3.47
2018-07-17T12:10:17.080Z,2.90
2018-07-17T12:12:44.808Z,2.90
2018-07-17T12:15:12.477Z,2.80
2018-07-17T12:17:40.236Z,5.20
2018-07-17T12:20:08.590Z,4.93
2018-07-17T12:22:36.260Z,4.70
2018-07-17T12:25:04.059Z,2.73
2018-07-17T12:27:31.733Z,2.80
2018-07-17T12:29:59.459Z,3.80
2018-07-17T12:32:27.187Z,2.90
2018-07-17T12:34:54.913Z,2.90
2018-07-17T12:37:22.608Z,3.27
2018-07-17T12:39:50.345Z,4.80
2018-07-17T12:42:18.193Z,3.50
2018-07-17T12:44:45.970Z,3.30
2018-07-17T12:47:13.730Z,3.60
2018-07-17T12:49:41.446Z,3.90
2018-07-17T12:52:09.223Z,3.10
2018-07-17T12:54:36.911Z,2.53
2018-07-17T12:57:04.819Z,3.20
2018-07-17T12:59:32.506Z,3.10
2018-07-17T13:02:00.223Z,3.37
2018-07-17T13:04:27.888Z,2.90
2018-07-17T13:06:55.637Z,3.70
2018-07-17T13:09:23.371Z,3.07
2018-07-17T13:11:51.107Z,2.90
2018-07-17T13:14:18.811Z,4.80
2018-07-17T13:16:46.603Z,2.93
2018-07-17T13:19:14.367Z,3.13
2018-07-17T13:21:42.114Z,3.10
2018-07-17T13:24:09.822Z,3.73
2018-07-17T13:26:37.520Z,3.77
2018-07-17T13:29:05.455Z,3.10
2018-07-17T13:31:33.032Z,7.83
2018-07-17T13:34:00.735Z,3.30
2018-07-17T13:36:28.479Z,4.20
2018-07-17T13:38:56.201Z,5.80
2018-07-17T13:41:23.988Z,4.27
2018-07-17T13:43:51.851Z,4.27
2018-07-17T13:46:19.552Z,7.50
2018-07-17T13:48:47.272Z,3.43
2018-07-17T13:51:14.984Z,3.30
2018-07-17T13:53:43.101Z,7.10
2018-07-17T13:56:10.821Z,13.07
2018-07-17T13:58:38.540Z,3.83
2018-07-17T14:01:06.347Z,3.53
2018-07-17T14:03:38.955Z,6.43
2018-07-17T14:06:09.816Z,3.10
2018-07-17T14:08:47.521Z,2.57
2018-07-17T14:14:11.899Z,2.23
2018-07-17T14:16:39.772Z,2.77
2018-07-17T14:19:07.456Z,3.10
2018-07-17T14:21:35.204Z,2.50
2018-07-17T14:24:02.923Z,2.50
2018-07-17T14:26:30.617Z,2.50
2018-07-17T14:28:58.311Z,2.80
2018-07-17T14:31:26.031Z,2.80
2018-07-17T14:33:53.739Z,3.00
2018-07-17T14:36:21.431Z,3.30
2018-07-17T14:38:53.725Z,3.00
2018-07-17T14:41:28.918Z,6.47
2018-07-17T14:43:56.754Z,5.50
2018-07-17T14:46:24.439Z,3.70
2018-07-17T14:48:53.221Z,2.83
2018-07-17T14:51:20.919Z,2.93
2018-07-17T14:53:48.663Z,3.13
2018-07-17T14:56:16.358Z,4.10
2018-07-17T14:58:44.040Z,2.93
2018-07-17T15:01:11.788Z,3.20
2018-07-17T15:03:39.479Z,3.40
2018-07-17T15:06:07.143Z,3.83
2018-07-17T15:08:34.850Z,3.27
2018-07-17T15:11:02.527Z,2.67
2018-07-17T15:13:30.191Z,3.47
2018-07-17T15:15:57.956Z,4.87
2018-07-17T15:18:25.643Z,3.30
2018-07-17T15:20:53.371Z,4.27
2018-07-17T15:23:21.027Z,4.30
2018-07-17T15:25:48.719Z,2.97
2018-07-17T15:28:16.481Z,2.47
2018-07-17T15:30:44.165Z,2.60
2018-07-17T15:33:11.905Z,3.10
2018-07-17T15:35:39.602Z,3.07
2018-07-17T15:38:07.260Z,7.93
2018-07-17T15:40:34.948Z,3.43
2018-07-17T15:43:02.675Z,3.80
2018-07-17T15:45:30.451Z,5.50
2018-07-17T15:47:58.105Z,4.23
2018-07-17T15:50:25.812Z,2.93
2018-07-17T15:52:53.535Z,4.30
2018-07-17T15:55:21.269Z,4.03
2018-07-17T15:57:49.033Z,2.83
2018-07-17T16:00:16.733Z,2.70
2018-07-17T16:02:44.454Z,3.13
2018-07-17T16:05:12.172Z,2.90
2018-07-17T16:07:39.860Z,3.17
2018-07-17T16:10:07.646Z,3.27
2018-07-17T16:12:35.419Z,3.20
2018-07-17T16:15:03.239Z,3.30
2018-07-17T16:17:30.935Z,3.20
2018-07-17T16:19:58.599Z,3.17
2018-07-17T16:22:26.336Z,3.60
2018-07-17T16:24:54.034Z,3.60
2018-07-17T16:27:21.782Z,3.30
2018-07-17T16:29:49.464Z,3.77
2018-07-17T16:32:17.161Z,3.40
2018-07-17T16:34:44.838Z,3.20
2018-07-17T16:37:12.555Z,4.60
2018-07-17T16:39:40.284Z,7.23
2018-07-17T16:42:08.023Z,5.23
2018-07-17T16:44:35.707Z,3.30
2018-07-17T16:47:03.372Z,3.40
2018-07-17T16:49:31.727Z,5.33
2018-07-17T16:51:59.408Z,3.50
2018-07-17T16:54:27.105Z,3.70
2018-07-17T16:56:54.800Z,3.87
2018-07-17T16:59:22.498Z,3.70
2018-07-17T17:01:50.268Z,3.53
2018-07-17T17:04:18.048Z,3.53
2018-07-17T17:06:45.707Z,3.40
2018-07-17T17:09:13.368Z,4.30
2018-07-17T17:11:42.144Z,3.73
2018-07-17T17:14:09.876Z,3.60
2018-07-17T17:16:37.617Z,6.20
2018-07-17T17:19:05.538Z,3.60
2018-07-17T17:21:33.190Z,3.50
2018-07-17T17:24:00.937Z,3.70
2018-07-17T17:26:28.613Z,3.70
2018-07-17T17:28:56.275Z,3.63
2018-07-17T17:31:23.976Z,4.47
2018-07-17T17:33:51.649Z,3.73
2018-07-17T17:36:19.427Z,4.13
2018-07-17T17:38:47.055Z,3.47
2018-07-17T17:41:14.881Z,4.70
2018-07-17T17:43:42.593Z,3.80
2018-07-17T17:46:10.269Z,3.80
2018-07-17T17:48:38.260Z,5.87
2018-07-17T17:51:06.093Z,4.00
2018-07-17T17:53:33.734Z,3.90
2018-07-17T17:56:01.433Z,5.23
2018-07-17T17:58:29.162Z,4.03
2018-07-17T18:00:56.912Z,4.33
2018-07-17T18:03:24.619Z,3.87
2018-07-17T18:05:52.316Z,4.37
2018-07-17T18:08:19.990Z,3.67
2018-07-17T18:10:47.735Z,4.67
2018-07-17T18:13:15.468Z,4.27
2018-07-17T18:15:44.910Z,3.80
2018-07-17T18:20:52.583Z,4.13
2018-07-17T18:23:20.596Z,3.97
2018-07-17T18:25:48.330Z,3.83
2018-07-17T18:28:16.065Z,3.70
2018-07-17T18:30:43.752Z,3.70
2018-07-17T18:33:11.430Z,6.23
2018-07-17T18:35:39.161Z,4.30
2018-07-17T18:38:06.979Z,3.70
2018-07-17T18:40:34.715Z,3.90
2018-07-17T18:43:02.417Z,4.47
2018-07-17T18:45:30.120Z,5.20
2018-07-17T18:47:57.827Z,3.57
